createdAt,value
2018-10-12T00:00:52.534Z,15.25
2018-10-12T00:03:21.343Z,14.95
2018-10-12T00:05:49.996Z,14.13
2018-10-12T00:08:18.598Z,13.90
2018-10-12T00:10:47.145Z,14.03
2018-10-12T00:13:15.855Z,13.48
2018-10-12T00:15:44.411Z,13.13
2018-10-12T00:18:12.955Z,15.68
2018-10-12T00:20:41.479Z,13.80
2018-10-12T00:23:10.032Z,15.98
2018-10-12T00:25:38.563Z,18.70
2018-10-12T00:28:07.202Z,18.90
2018-10-12T00:30:36.115Z,16.95
2018-10-12T00:33:04.722Z,20.15
2018-10-12T00:35:33.275Z,20.88
2018-10-12T00:38:01.819Z,20.23
2018-10-12T00:40:30.372Z,19.02
2018-10-12T00:42:59.315Z,19.75
2018-10-12T00:45:27.851Z,16.45
2018-10-12T00:47:59.503Z,13.72
2018-10-12T00:50:29.019Z,12.80
2018-10-12T00:52:57.559Z,11.43
2018-10-12T00:55:27.185Z,12.18
2018-10-12T00:57:55.743Z,11.60
2018-10-12T01:00:26.005Z,11.80
2018-10-12T01:02:55.339Z,12.07
2018-10-12T01:05:24.227Z,11.57
2018-10-12T01:07:52.784Z,11.10
2018-10-12T01:10:21.592Z,12.60
2018-10-12T01:12:50.167Z,11.83
2018-10-12T01:15:18.820Z,13.15
2018-10-12T01:17:47.475Z,11.68
2018-10-12T01:20:16.112Z,11.30
2018-10-12T01:22:44.710Z,11.73
2018-10-12T01:25:13.295Z,11.20
2018-10-12T01:27:41.932Z,10.88
2018-10-12T01:30:11.263Z,11.35
2018-10-12T01:32:45.171Z,11.57
2018-10-12T01:35:14.431Z,11.85
2018-10-12T01:37:42.972Z,12.47
2018-10-12T01:40:11.775Z,9.90
2018-10-12T01:42:40.316Z,10.25
2018-10-12T01:45:09.006Z,9.90
2018-10-12T01:47:37.599Z,11.38
2018-10-12T01:50:06.235Z,11.65
2018-10-12T01:52:35.579Z,10.00
2018-10-12T01:55:04.179Z,10.70
2018-10-12T01:57:32.731Z,9.73
2018-10-12T02:00:01.609Z,10.30
2018-10-12T02:02:30.152Z,9.40
2018-10-12T02:04:58.746Z,11.50
2018-10-12T02:07:27.327Z,10.98
2018-10-12T02:09:56.827Z,11.18
2018-10-12T02:12:25.370Z,10.78
2018-10-12T02:14:54.107Z,11.30
2018-10-12T02:17:22.643Z,10.90
2018-10-12T02:19:51.191Z,10.90
2018-10-12T02:22:19.952Z,10.85
2018-10-12T02:24:48.503Z,11.38
2018-10-12T02:27:17.588Z,11.60
2018-10-12T02:29:46.110Z,9.10
2018-10-12T02:32:14.662Z,12.53
2018-10-12T02:34:43.432Z,10.40
2018-10-12T02:37:12.007Z,12.10
2018-10-12T02:39:40.619Z,10.85
2018-10-12T02:42:09.350Z,11.20
2018-10-12T02:44:37.888Z,14.28
2018-10-12T02:47:06.647Z,13.55
2018-10-12T02:49:35.187Z,11.85
2018-10-12T02:52:03.734Z,12.43
2018-10-12T02:54:32.269Z,12.35
2018-10-12T02:57:00.818Z,14.75
2018-10-12T02:59:29.670Z,14.87
2018-10-12T03:01:58.241Z,13.55
2018-10-12T03:04:26.796Z,15.13
2018-10-12T03:06:55.351Z,13.30
2018-10-12T03:09:24.079Z,13.68
2018-10-12T03:11:52.636Z,13.35
2018-10-12T03:14:21.175Z,11.60
2018-10-12T03:16:50.175Z,11.95
2018-10-12T03:19:18.740Z,12.25
2018-10-12T03:21:47.282Z,11.75
2018-10-12T03:24:15.835Z,14.78
2018-10-12T03:26:44.379Z,14.18
2018-10-12T03:29:13.004Z,16.52
2018-10-12T03:31:41.650Z,17.90
2018-10-12T03:34:10.478Z,19.10
2018-10-12T03:36:39.983Z,26.27
2018-10-12T03:39:09.152Z,22.58
2018-10-12T03:41:37.754Z,23.27
2018-10-12T03:44:06.796Z,24.47
2018-10-12T03:46:35.366Z,20.48
2018-10-12T03:49:03.931Z,16.95
2018-10-12T03:51:32.914Z,17.07
2018-10-12T03:54:02.083Z,15.15
2018-10-12T03:56:30.638Z,14.60
2018-10-12T03:58:59.175Z,14.73
2018-10-12T04:01:28.484Z,15.00
2018-10-12T04:03:57.026Z,14.55
2018-10-12T04:06:25.919Z,14.05
2018-10-12T04:08:54.951Z,14.15
2018-10-12T04:11:23.480Z,13.72
2018-10-12T04:13:52.062Z,15.10
2018-10-12T04:16:20.632Z,14.60
2018-10-12T04:18:49.168Z,14.10
2018-10-12T04:21:19.069Z,15.40
2018-10-12T04:23:47.579Z,14.98
2018-10-12T04:26:16.139Z,14.23
2018-10-12T04:28:44.699Z,15.60
2018-10-12T04:31:13.250Z,14.58
2018-10-12T04:33:41.844Z,14.20
2018-10-12T04:36:10.745Z,12.98
2018-10-12T04:38:51.053Z,14.47
2018-10-12T04:41:21.770Z,13.38
2018-10-12T04:43:52.394Z,14.28
2018-10-12T04:46:25.236Z,14.13
2018-10-12T04:48:54.207Z,15.45
2018-10-12T04:51:26.695Z,14.60
2018-10-12T04:53:55.433Z,14.23
2018-10-12T04:56:24.100Z,13.72
2018-10-12T04:58:52.718Z,12.50
2018-10-12T05:01:21.318Z,13.90
2018-10-12T05:03:49.897Z,14.25
2018-10-12T05:06:18.487Z,19.70
2018-10-12T05:08:47.059Z,32.90
2018-10-12T05:11:15.706Z,26.60
2018-10-12T05:13:44.245Z,22.05
2018-10-12T05:16:12.987Z,32.35
2018-10-12T05:18:41.530Z,27.75
2018-10-12T05:21:10.084Z,26.23
2018-10-12T05:23:39.237Z,21.27
2018-10-12T05:26:07.860Z,18.32
2018-10-12T05:28:37.553Z,16.80
2018-10-12T05:31:06.775Z,17.95
2018-10-12T05:33:35.598Z,14.90
2018-10-12T05:36:04.234Z,13.75
2018-10-12T05:38:33.859Z,15.50
2018-10-12T05:41:02.539Z,15.35
2018-10-12T05:43:31.361Z,15.63
2018-10-12T05:45:59.856Z,18.15
2018-10-12T05:48:40.493Z,23.90
2018-10-12T05:51:10.119Z,21.48
2018-10-12T05:53:39.482Z,21.02
2018-10-12T05:56:08.730Z,22.22
2018-10-12T05:58:38.565Z,19.17
2018-10-12T06:01:07.371Z,19.20
2018-10-12T06:03:35.934Z,18.73
2018-10-12T06:06:04.566Z,17.75
2018-10-12T06:08:33.150Z,17.73
2018-10-12T06:11:01.713Z,16.97
2018-10-12T06:13:30.514Z,19.70
2018-10-12T06:15:59.124Z,17.85
2018-10-12T06:18:27.651Z,17.25
2018-10-12T06:20:56.343Z,17.62
2018-10-12T06:23:25.115Z,17.73
2018-10-12T06:25:53.663Z,18.65
2018-10-12T06:28:22.215Z,17.00
2018-10-12T06:30:50.791Z,17.07
2018-10-12T06:33:19.739Z,17.42
2018-10-12T06:35:48.323Z,17.00
2018-10-12T06:38:16.891Z,17.98
2018-10-12T06:40:45.495Z,19.55
2018-10-12T06:43:14.022Z,18.32
2018-10-12T06:45:43.119Z,18.05
2018-10-12T06:48:11.711Z,20.27
2018-10-12T06:50:41.518Z,20.02
2018-10-12T06:53:10.206Z,19.17
2018-10-12T06:55:38.751Z,20.45
2018-10-12T06:58:07.811Z,19.37
2018-10-12T07:00:37.480Z,20.52
2018-10-12T07:03:06.787Z,19.57
2018-10-12T07:05:35.560Z,19.77
2018-10-12T07:08:04.086Z,20.40
2018-10-12T07:10:32.671Z,20.92
2018-10-12T07:13:01.951Z,20.10
2018-10-12T07:15:30.550Z,20.10
2018-10-12T07:17:59.089Z,21.65
2018-10-12T07:20:27.852Z,20.68
2018-10-12T07:22:56.455Z,22.37
2018-10-12T07:25:25.028Z,19.92
2018-10-12T07:27:53.583Z,20.32
2018-10-12T07:30:22.471Z,23.00
2018-10-12T07:32:51.019Z,20.62
2018-10-12T07:35:19.660Z,23.22
2018-10-12T07:37:48.796Z,23.62
2018-10-12T07:40:17.379Z,23.73
2018-10-12T07:42:45.947Z,23.10
2018-10-12T07:45:14.517Z,21.42
2018-10-12T07:47:43.074Z,24.27
2018-10-12T07:50:11.648Z,22.75
2018-10-12T07:52:40.520Z,23.27
2018-10-12T07:55:09.067Z,22.95
2018-10-12T07:57:37.615Z,20.85
2018-10-12T08:00:07.662Z,23.18
2018-10-12T08:02:36.203Z,22.22
2018-10-12T08:05:04.815Z,23.40
2018-10-12T08:07:33.358Z,21.10
2018-10-12T08:10:01.911Z,22.10
2018-10-12T08:12:30.499Z,23.12
2018-10-12T08:14:59.046Z,21.95
2018-10-12T08:17:27.591Z,21.62
2018-10-12T08:19:56.235Z,23.27
2018-10-12T08:22:24.799Z,22.32
2018-10-12T08:24:53.343Z,24.40
2018-10-12T08:27:22.048Z,20.72
2018-10-12T08:29:50.604Z,21.50
2018-10-12T08:32:19.255Z,22.22
2018-10-12T08:34:47.819Z,21.68
2018-10-12T08:37:16.369Z,20.82
2018-10-12T08:39:45.127Z,19.92
2018-10-12T08:42:13.680Z,20.40
2018-10-12T08:44:42.271Z,20.43
2018-10-12T08:47:10.894Z,21.80
2018-10-12T08:49:39.442Z,20.75
2018-10-12T08:52:08.005Z,19.98
2018-10-12T08:54:36.545Z,22.73
2018-10-12T08:57:05.391Z,19.25
2018-10-12T08:59:34.047Z,20.35
2018-10-12T09:02:02.591Z,20.90
2018-10-12T09:04:31.127Z,20.50
2018-10-12T09:06:59.677Z,19.75
2018-10-12T09:09:28.951Z,21.62
2018-10-12T09:11:57.535Z,20.85
2018-10-12T09:14:26.107Z,21.02
2018-10-12T09:16:54.679Z,21.95
2018-10-12T09:19:23.523Z,20.65
2018-10-12T09:21:52.115Z,18.77
2018-10-12T09:24:20.692Z,20.37
2018-10-12T09:26:49.318Z,20.80
2018-10-12T09:29:17.866Z,19.27
2018-10-12T09:31:46.532Z,19.35
2018-10-12T09:34:15.075Z,21.20
2018-10-12T09:36:43.910Z,21.27
2018-10-12T09:39:12.834Z,21.60
2018-10-12T09:41:41.375Z,19.40
2018-10-12T09:44:10.999Z,18.55
2018-10-12T09:46:39.590Z,18.25
2018-10-12T09:49:08.338Z,22.35
2018-10-12T09:51:37.067Z,19.10
2018-10-12T09:54:05.633Z,20.30
2018-10-12T09:56:34.209Z,19.87
2018-10-12T09:59:02.799Z,20.65
2018-10-12T10:01:37.136Z,20.52
2018-10-12T10:04:10.986Z,20.05
2018-10-12T10:06:39.991Z,20.23
2018-10-12T10:09:08.534Z,19.48
2018-10-12T10:11:37.070Z,18.85
2018-10-12T10:14:05.603Z,17.35
2018-10-12T10:16:34.265Z,18.15
2018-10-12T10:19:02.818Z,18.98
2018-10-12T10:21:31.362Z,19.30
2018-10-12T10:24:00.095Z,18.75
2018-10-12T10:26:28.663Z,20.25
2018-10-12T10:28:57.198Z,21.62
2018-10-12T10:31:26.222Z,18.40
2018-10-12T10:33:54.779Z,19.75
2018-10-12T10:36:24.252Z,19.48
2018-10-12T10:38:53.125Z,20.40
2018-10-12T10:41:21.673Z,20.35
2018-10-12T10:43:50.692Z,18.95
2018-10-12T10:46:19.369Z,18.92
2018-10-12T10:48:48.678Z,20.05
2018-10-12T10:51:17.752Z,20.80
2018-10-12T10:53:47.636Z,18.55
2018-10-12T10:56:16.435Z,19.52
2018-10-12T10:58:46.959Z,18.60
2018-10-12T11:01:15.823Z,19.80
2018-10-12T11:03:44.379Z,19.55
2018-10-12T11:06:13.065Z,19.52
2018-10-12T11:08:41.619Z,19.30
2018-10-12T11:11:10.175Z,19.05
2018-10-12T11:13:38.879Z,18.05
2018-10-12T11:16:07.459Z,18.90
2018-10-12T11:18:37.010Z,19.67
2018-10-12T11:21:06.004Z,18.32
2018-10-12T11:23:34.544Z,19.25
2018-10-12T11:26:03.430Z,18.27
2018-10-12T11:28:32.016Z,18.23
2018-10-12T11:31:00.619Z,18.77
2018-10-12T11:33:29.160Z,19.10
2018-10-12T11:35:58.219Z,16.02
2018-10-12T11:38:26.946Z,18.05
2018-10-12T11:40:55.499Z,16.37
2018-10-12T11:43:33.803Z,17.30
2018-10-12T11:46:02.858Z,16.62
2018-10-12T11:48:31.887Z,17.92
2018-10-12T11:51:00.822Z,18.20
2018-10-12T11:53:29.530Z,17.15
2018-10-12T11:55:58.079Z,17.75
2018-10-12T11:58:26.814Z,17.23
2018-10-12T12:00:55.799Z,16.90
2018-10-12T12:03:24.368Z,17.27
2018-10-12T12:05:52.968Z,19.25
2018-10-12T12:08:21.527Z,18.87
2018-10-12T12:10:50.091Z,17.02
2018-10-12T12:13:18.683Z,18.27
2018-10-12T12:15:47.478Z,16.95
2018-10-12T12:18:16.055Z,20.02
2018-10-12T12:20:44.615Z,18.10
2018-10-12T12:23:13.513Z,17.80
2018-10-12T12:25:42.059Z,17.42
2018-10-12T12:28:10.628Z,17.47
2018-10-12T12:30:39.179Z,14.37
2018-10-12T12:33:07.759Z,15.57
2018-10-12T12:35:37.260Z,15.80
2018-10-12T12:38:05.479Z,16.33
2018-10-12T12:40:34.035Z,15.77
2018-10-12T12:43:02.605Z,16.00
2018-10-12T12:45:31.182Z,16.50
2018-10-12T12:48:00.024Z,15.80
2018-10-12T12:50:28.357Z,15.87
2018-10-12T12:54:26.103Z,16.20
2018-10-12T12:56:54.652Z,17.43
2018-10-12T12:59:23.467Z,16.80
2018-10-12T13:01:52.319Z,16.53
2018-10-12T13:04:21.043Z,16.33
2018-10-12T13:06:49.667Z,14.20
2018-10-12T13:09:18.203Z,16.30
2018-10-12T13:11:47.230Z,15.77
2018-10-12T13:14:15.803Z,16.23
2018-10-12T13:16:44.342Z,15.90
2018-10-12T13:19:12.884Z,18.43
2018-10-12T13:23:10.852Z,15.77
2018-10-12T13:25:39.475Z,16.53
2018-10-12T13:28:08.381Z,16.60
2018-10-12T13:30:36.953Z,16.83
2018-10-12T13:33:05.955Z,16.17
2018-10-12T13:35:34.725Z,16.50
2018-10-12T13:38:03.263Z,16.63
2018-10-12T13:40:32.255Z,16.20
2018-10-12T13:43:00.790Z,16.57
2018-10-12T13:45:29.343Z,16.57
2018-10-12T13:47:57.891Z,16.40
2018-10-12T13:50:26.439Z,15.77
2018-10-12T13:52:54.991Z,16.53
2018-10-12T13:55:23.568Z,15.83
2018-10-12T13:57:52.639Z,16.47
2018-10-12T14:00:21.199Z,17.50
2018-10-12T14:02:49.747Z,17.90
2018-10-12T14:05:18.309Z,18.10
2018-10-12T14:07:46.896Z,16.45
2018-10-12T14:10:15.457Z,18.30
2018-10-12T14:12:44.003Z,17.25
2018-10-12T14:15:13.076Z,18.10
2018-10-12T14:17:41.629Z,17.35
2018-10-12T14:20:10.216Z,16.70
2018-10-12T14:22:38.771Z,18.48
2018-10-12T14:25:08.009Z,17.55
2018-10-12T14:27:36.690Z,20.52
2018-10-12T14:30:05.681Z,18.45
2018-10-12T14:32:34.287Z,18.12
2018-10-12T14:35:02.846Z,17.37
2018-10-12T14:37:31.432Z,16.73
2018-10-12T14:39:59.991Z,18.25
2018-10-12T14:42:28.580Z,18.50
2018-10-12T14:44:57.172Z,18.92
2018-10-12T14:47:26.016Z,19.60
2018-10-12T14:49:54.970Z,19.35
2018-10-12T14:52:23.511Z,19.55
2018-10-12T14:54:52.207Z,21.15
2018-10-12T14:57:21.576Z,19.85
2018-10-12T14:59:50.994Z,19.32
2018-10-12T15:02:20.519Z,19.45
2018-10-12T15:04:49.107Z,21.52
2018-10-12T15:07:17.655Z,20.10
2018-10-12T15:09:46.191Z,20.85
2018-10-12T15:12:14.751Z,20.82
2018-10-12T15:14:54.515Z,19.80
2018-10-12T15:17:23.061Z,21.50
2018-10-12T15:19:51.807Z,20.68
2018-10-12T15:22:20.355Z,20.37
2018-10-12T15:24:48.908Z,20.97
2018-10-12T15:27:17.501Z,19.70
2018-10-12T15:29:46.039Z,20.32
2018-10-12T15:32:14.667Z,19.25
2018-10-12T15:34:43.159Z,20.60
2018-10-12T15:37:11.777Z,20.17
2018-10-12T15:39:40.448Z,21.15
2018-10-12T15:42:09.094Z,20.92
2018-10-12T15:44:37.835Z,20.12
2018-10-12T15:47:06.371Z,19.98
2018-10-12T15:49:34.930Z,21.15
2018-10-12T15:52:03.573Z,19.55
2018-10-12T15:54:32.185Z,21.45
2018-10-12T15:57:00.820Z,20.45
2018-10-12T15:59:29.326Z,20.62
2018-10-12T16:01:57.969Z,22.73
2018-10-12T16:04:26.535Z,20.60
2018-10-12T16:06:55.130Z,22.02
2018-10-12T16:09:24.291Z,21.73
2018-10-12T16:11:53.971Z,25.32
2018-10-12T16:14:23.295Z,32.23
2018-10-12T16:16:51.975Z,26.77
2018-10-12T16:19:20.521Z,26.33
2018-10-12T16:21:49.127Z,22.62
2018-10-12T16:24:17.670Z,22.17
2018-10-12T16:26:46.224Z,25.85
2018-10-12T16:29:14.873Z,22.42
2018-10-12T16:31:43.863Z,24.40
2018-10-12T16:34:12.408Z,21.57
2018-10-12T16:36:41.011Z,23.07
2018-10-12T16:39:10.339Z,21.93
2018-10-12T16:41:39.487Z,23.75
2018-10-12T16:44:08.351Z,24.35
2018-10-12T16:46:36.936Z,22.70
2018-10-12T16:49:06.512Z,22.10
2018-10-12T16:51:35.104Z,26.70
2018-10-12T16:54:03.707Z,26.52
2018-10-12T16:56:32.511Z,22.75
2018-10-12T16:59:01.324Z,24.02
2018-10-12T17:01:29.970Z,26.87
2018-10-12T17:03:58.519Z,22.75
2018-10-12T17:06:27.233Z,25.45
2018-10-12T17:08:55.795Z,20.40
2018-10-12T17:11:24.562Z,27.85
2018-10-12T17:13:53.104Z,23.25
2018-10-12T17:16:21.639Z,22.73
2018-10-12T17:18:50.186Z,31.55
2018-10-12T17:21:19.039Z,25.30
2018-10-12T17:23:47.607Z,24.12
2018-10-12T17:26:16.187Z,22.60
2018-10-12T17:28:44.727Z,22.67
2018-10-12T17:31:13.286Z,23.60
2018-10-12T17:33:41.870Z,22.67
2018-10-12T17:36:10.454Z,23.05
2018-10-12T17:38:38.999Z,24.63
2018-10-12T17:41:15.335Z,22.73
2018-10-12T17:43:44.223Z,23.67
2018-10-12T17:46:13.484Z,23.73
2018-10-12T17:48:42.119Z,23.57
2018-10-12T17:51:11.063Z,22.05
2018-10-12T17:53:39.614Z,22.05
2018-10-12T17:56:08.200Z,23.45
2018-10-12T17:58:36.866Z,21.48
2018-10-12T18:01:06.460Z,24.35
2018-10-12T18:03:35.357Z,25.00
2018-10-12T18:06:04.615Z,22.45
2018-10-12T18:08:33.279Z,23.47
2018-10-12T18:11:02.365Z,22.85
2018-10-12T18:13:30.952Z,23.52
2018-10-12T18:15:59.509Z,23.20
2018-10-12T18:18:28.056Z,22.50
2018-10-12T18:20:57.250Z,22.42
2018-10-12T18:23:25.788Z,22.48
2018-10-12T18:25:54.396Z,24.00
2018-10-12T18:28:23.318Z,24.57
2018-10-12T18:30:51.955Z,23.22
2018-10-12T18:33:20.541Z,25.80
2018-10-12T18:35:49.067Z,25.10
2018-10-12T18:38:17.639Z,23.27
2018-10-12T18:40:46.175Z,22.87
2018-10-12T18:43:14.812Z,22.35
2018-10-12T18:45:43.415Z,23.25
2018-10-12T18:48:11.979Z,22.67
2018-10-12T18:50:40.537Z,22.58
2018-10-12T18:53:09.239Z,22.55
2018-10-12T18:55:37.785Z,25.25
2018-10-12T18:58:06.403Z,24.63
2018-10-12T19:00:34.947Z,21.95
2018-10-12T19:03:03.512Z,23.25
2018-10-12T19:05:32.233Z,23.92
2018-10-12T19:08:00.771Z,24.75
2018-10-12T19:10:29.311Z,22.30
2018-10-12T19:12:57.954Z,22.70
2018-10-12T19:15:26.791Z,23.65
2018-10-12T19:17:55.380Z,25.25
2018-10-12T19:20:24.351Z,21.52
2018-10-12T19:22:52.891Z,23.18
2018-10-12T19:25:21.455Z,22.25
2018-10-12T19:27:50.019Z,22.60
2018-10-12T19:30:18.575Z,22.22
2018-10-12T19:32:47.127Z,25.08
2018-10-12T19:35:16.003Z,24.60
2018-10-12T19:37:44.563Z,22.65
2018-10-12T19:40:13.111Z,22.85
2018-10-12T19:42:41.677Z,22.15
2018-10-12T19:45:10.215Z,22.02
2018-10-12T19:47:38.758Z,24.15
2018-10-12T19:50:07.341Z,21.17
2018-10-12T19:52:36.434Z,22.62
2018-10-12T19:55:05.360Z,22.62
2018-10-12T19:57:33.927Z,23.57
2018-10-12T20:00:03.317Z,23.42
2018-10-12T20:02:31.859Z,23.50
2018-10-12T20:05:01.104Z,23.73
2018-10-12T20:07:29.648Z,23.62
2018-10-12T20:09:58.286Z,22.93
2018-10-12T20:12:26.848Z,22.70
2018-10-12T20:14:55.407Z,25.17
2018-10-12T20:17:27.861Z,23.40
2018-10-12T20:19:56.383Z,23.60
2018-10-12T20:22:24.933Z,23.52
2018-10-12T20:24:53.475Z,23.20
2018-10-12T20:27:22.012Z,25.02
2018-10-12T20:29:50.709Z,24.30
2018-10-12T20:32:19.243Z,23.73
2018-10-12T20:34:47.795Z,23.42
2018-10-12T20:37:16.447Z,23.25
2018-10-12T20:39:47.772Z,22.40
2018-10-12T20:42:16.323Z,25.50
2018-10-12T20:44:53.083Z,21.48
2018-10-12T20:47:22.007Z,24.05
2018-10-12T20:49:50.635Z,22.32
2018-10-12T20:52:19.176Z,24.70
2018-10-12T20:54:47.827Z,23.52
2018-10-12T20:57:16.408Z,23.87
2018-10-12T20:59:44.964Z,23.40
2018-10-12T21:02:13.568Z,25.35
2018-10-12T21:04:42.160Z,24.67
2018-10-12T21:07:10.817Z,23.47
2018-10-12T21:09:39.381Z,23.42
2018-10-12T21:12:07.939Z,22.75
2018-10-12T21:14:36.486Z,24.50
2018-10-12T21:17:05.069Z,23.83
2018-10-12T21:19:33.631Z,24.30
2018-10-12T21:22:02.652Z,24.27
2018-10-12T21:24:31.195Z,23.32
2018-10-12T21:26:59.741Z,23.55
2018-10-12T21:29:28.568Z,25.43
2018-10-12T21:31:57.111Z,22.93
2018-10-12T21:34:25.657Z,24.25
2018-10-12T21:36:54.215Z,24.65
2018-10-12T21:39:23.048Z,24.82
2018-10-12T21:41:52.022Z,22.75
2018-10-12T21:44:20.590Z,24.92
2018-10-12T21:46:49.247Z,24.82
2018-10-12T21:49:18.030Z,24.45
2018-10-12T21:51:47.300Z,24.15
2018-10-12T21:54:15.838Z,24.37
2018-10-12T21:56:44.408Z,25.37
2018-10-12T21:59:12.946Z,22.77
2018-10-12T22:01:41.507Z,25.17
2018-10-12T22:04:10.198Z,25.55
2018-10-12T22:06:38.739Z,24.92
2018-10-12T22:09:08.821Z,24.05
2018-10-12T22:11:38.003Z,24.12
2018-10-12T22:14:06.654Z,23.42
2018-10-12T22:16:35.235Z,24.20
2018-10-12T22:19:04.384Z,23.10
2018-10-12T22:21:32.919Z,23.45
2018-10-12T22:24:01.488Z,24.63
2018-10-12T22:26:30.103Z,22.60
2018-10-12T22:28:58.707Z,25.27
2018-10-12T22:31:27.264Z,25.82
2018-10-12T22:33:55.818Z,24.00
2018-10-12T22:36:24.878Z,25.68
2018-10-12T22:38:53.420Z,25.15
2018-10-12T22:41:22.001Z,25.10
2018-10-12T22:43:50.539Z,24.60
2018-10-12T22:46:19.075Z,24.18
2018-10-12T22:48:47.883Z,24.30
2018-10-12T22:51:16.446Z,24.90
2018-10-12T22:53:44.999Z,26.97
2018-10-12T22:56:13.536Z,25.10
2018-10-12T22:58:42.147Z,25.15
2018-10-12T23:01:10.703Z,25.57
2018-10-12T23:03:39.292Z,25.02
2018-10-12T23:06:08.291Z,23.80
2018-10-12T23:08:36.826Z,24.00
2018-10-12T23:11:06.553Z,24.70
2018-10-12T23:13:35.141Z,23.85
2018-10-12T23:16:03.740Z,25.62
2018-10-12T23:18:32.308Z,24.05
2018-10-12T23:21:00.923Z,23.22
2018-10-12T23:23:29.642Z,26.07
2018-10-12T23:25:58.172Z,24.55
2018-10-12T23:28:26.723Z,24.45
2018-10-12T23:30:55.491Z,24.90
2018-10-12T23:33:35.405Z,24.90
2018-10-12T23:36:03.999Z,25.35
2018-10-12T23:38:32.585Z,25.88
2018-10-12T23:41:01.130Z,25.20
2018-10-12T23:43:29.863Z,24.15
2018-10-12T23:45:58.416Z,25.00
2018-10-12T23:48:26.970Z,23.32
2018-10-12T23:50:55.760Z,24.00
2018-10-12T23:53:24.355Z,23.18
2018-10-12T23:55:52.943Z,23.55
2018-10-12T23:58:21.922Z,22.45
